createdAt,value
2022-12-04T00:04:57.476Z,100.00
2022-12-04T00:10:00.266Z,100.00
2022-12-04T00:20:27.754Z,100.00
2022-12-04T00:25:37.760Z,100.00
2022-12-04T00:30:47.862Z,100.00
2022-12-04T00:35:57.047Z,100.00
2022-12-04T00:41:00.759Z,99.28
2022-12-04T00:46:04.913Z,100.00
2022-12-04T00:51:10.387Z,98.06
2022-12-04T00:56:18.275Z,97.80
2022-12-04T01:01:23.921Z,98.94
2022-12-04T01:06:28.833Z,100.00
2022-12-04T01:11:32.577Z,100.00
2022-12-04T01:16:39.408Z,97.91
2022-12-04T01:21:42.252Z,98.95
2022-12-04T01:26:44.828Z,99.29
2022-12-04T01:31:48.794Z,98.85
2022-12-04T01:36:51.473Z,100.00
2022-12-04T01:41:54.053Z,100.00
2022-12-04T01:46:59.457Z,100.00
2022-12-04T01:52:06.820Z,100.00
2022-12-04T01:57:15.236Z,99.48
2022-12-04T02:02:24.297Z,98.68
2022-12-04T02:07:27.209Z,98.90
2022-12-04T02:12:38.532Z,98.99
2022-12-04T02:17:52.502Z,99.13
2022-12-04T02:23:17.014Z,99.95
2022-12-04T02:28:27.082Z,100.00
2022-12-04T02:33:34.075Z,99.99
2022-12-04T02:38:43.651Z,99.72
2022-12-04T02:43:52.821Z,100.00
2022-12-04T02:49:01.139Z,100.00
2022-12-04T02:54:08.937Z,100.00
2022-12-04T02:59:17.315Z,100.00
2022-12-04T03:04:23.326Z,100.00
2022-12-04T03:09:32.062Z,100.00
2022-12-04T03:14:41.015Z,99.61
2022-12-04T03:19:49.474Z,99.03
2022-12-04T03:24:54.134Z,98.14
2022-12-04T03:30:02.939Z,100.00
2022-12-04T03:35:12.415Z,97.89
2022-12-04T03:40:20.638Z,96.79
2022-12-04T03:45:28.715Z,97.16
2022-12-04T03:50:40.554Z,100.00
2022-12-04T03:55:47.963Z,99.58
2022-12-04T04:00:54.150Z,98.66
2022-12-04T04:06:02.675Z,100.00
2022-12-04T04:11:13.232Z,100.00
2022-12-04T04:16:38.798Z,100.00
2022-12-04T04:22:03.069Z,99.85
2022-12-04T04:27:06.360Z,99.82
2022-12-04T04:32:15.127Z,100.00
2022-12-04T04:37:30.019Z,98.73
2022-12-04T04:42:38.635Z,100.00
2022-12-04T04:47:48.261Z,100.00
2022-12-04T04:52:55.397Z,100.00
2022-12-04T04:58:07.660Z,100.00
2022-12-04T05:03:11.836Z,100.00
2022-12-04T05:08:14.606Z,100.00
2022-12-04T05:13:18.207Z,100.00
2022-12-04T05:18:22.218Z,100.00
2022-12-04T05:23:25.360Z,100.00
2022-12-04T05:28:28.612Z,100.00
2022-12-04T05:33:32.560Z,100.00
2022-12-04T05:38:35.326Z,100.00
2022-12-04T05:43:37.962Z,100.00
2022-12-04T05:48:42.037Z,100.00
2022-12-04T05:53:44.667Z,100.00
2022-12-04T05:58:47.244Z,100.00
2022-12-04T06:03:51.254Z,100.00
2022-12-04T06:08:56.256Z,100.00
2022-12-04T06:14:00.478Z,100.00
2022-12-04T06:19:07.866Z,100.00
2022-12-04T06:24:14.281Z,100.00
2022-12-04T06:29:17.342Z,100.00
2022-12-04T06:34:21.489Z,100.00
2022-12-04T06:39:24.217Z,100.00
2022-12-04T06:44:26.915Z,100.00
2022-12-04T06:49:30.846Z,100.00
2022-12-04T06:54:33.574Z,100.00
2022-12-04T06:59:36.880Z,100.00
2022-12-04T07:04:40.881Z,100.00
2022-12-04T07:09:44.234Z,100.00
2022-12-04T07:14:46.820Z,100.00
2022-12-04T07:19:50.889Z,100.00
2022-12-04T07:24:53.528Z,99.06
2022-12-04T07:29:57.384Z,99.36
2022-12-04T07:35:01.609Z,100.00
2022-12-04T07:40:07.357Z,100.00
2022-12-04T07:45:10.943Z,100.00
2022-12-04T07:50:14.966Z,100.00
2022-12-04T07:55:23.004Z,100.00
2022-12-04T08:00:25.950Z,99.02
2022-12-04T08:05:30.015Z,100.00
2022-12-04T08:10:32.852Z,99.78
2022-12-04T08:15:35.873Z,98.88
2022-12-04T08:20:40.014Z,100.00
2022-12-04T08:25:42.780Z,100.00
2022-12-04T08:30:45.419Z,100.00
2022-12-04T08:35:49.496Z,100.00
2022-12-04T08:40:52.176Z,99.73
2022-12-04T08:45:58.946Z,99.42
2022-12-04T08:51:04.183Z,100.00
2022-12-04T08:56:07.550Z,100.00
2022-12-04T09:01:12.964Z,100.00
2022-12-04T09:06:18.862Z,100.00
2022-12-04T09:11:25.979Z,100.00
2022-12-04T09:16:29.265Z,100.00
2022-12-04T09:21:33.682Z,100.00
2022-12-04T09:26:36.584Z,100.00
2022-12-04T09:31:39.398Z,100.00
2022-12-04T09:36:43.636Z,100.00
2022-12-04T09:42:09.684Z,100.00
2022-12-04T09:47:20.922Z,100.00
2022-12-04T09:52:36.579Z,100.00
2022-12-04T09:57:44.917Z,100.00
2022-12-04T10:02:52.767Z,100.00
2022-12-04T10:08:07.075Z,100.00
2022-12-04T10:13:31.241Z,100.00
2022-12-04T10:18:45.771Z,100.00
2022-12-04T10:24:00.058Z,100.00
2022-12-04T10:29:08.189Z,100.00
2022-12-04T10:34:17.464Z,100.00
2022-12-04T10:39:26.288Z,100.00
2022-12-04T10:44:28.959Z,100.00
2022-12-04T10:49:35.213Z,100.00
2022-12-04T10:54:47.836Z,100.00
2022-12-04T10:59:52.672Z,98.39
2022-12-04T11:05:00.248Z,100.00
2022-12-04T11:10:07.634Z,100.00
2022-12-04T11:15:15.691Z,100.00
2022-12-04T11:20:26.998Z,100.00
2022-12-04T11:25:41.090Z,100.00
2022-12-04T11:30:50.175Z,100.00
2022-12-04T11:35:56.754Z,100.00
2022-12-04T11:41:04.727Z,100.00
2022-12-04T11:46:08.117Z,100.00
2022-12-04T11:51:25.568Z,100.00
2022-12-04T11:56:34.937Z,100.00
2022-12-04T12:01:47.413Z,100.00
2022-12-04T12:06:59.310Z,100.00
2022-12-04T12:12:08.412Z,100.00
2022-12-04T12:17:21.811Z,100.00
2022-12-04T12:22:48.431Z,100.00
2022-12-04T12:28:10.158Z,100.00
2022-12-04T12:33:18.426Z,100.00
2022-12-04T12:38:25.968Z,100.00
2022-12-04T12:43:32.771Z,100.00
2022-12-04T12:48:41.130Z,100.00
2022-12-04T12:53:48.057Z,100.00
2022-12-04T12:58:58.845Z,100.00
2022-12-04T13:04:09.904Z,100.00
2022-12-04T13:09:19.106Z,100.00
2022-12-04T13:14:23.081Z,100.00
2022-12-04T13:19:30.887Z,100.00
2022-12-04T13:24:53.761Z,100.00
2022-12-04T13:30:15.582Z,100.00
2022-12-04T13:35:29.590Z,100.00
2022-12-04T13:40:36.408Z,100.00
2022-12-04T13:45:42.129Z,100.00
2022-12-04T13:50:44.873Z,100.00
2022-12-04T13:55:56.590Z,100.00
2022-12-04T14:01:13.041Z,100.00
2022-12-04T14:06:25.347Z,100.00
2022-12-04T14:11:30.115Z,100.00
2022-12-04T14:16:39.459Z,100.00
2022-12-04T14:21:43.305Z,100.00
2022-12-04T14:32:21.575Z,100.00
2022-12-04T14:37:29.470Z,100.00
2022-12-04T14:42:36.802Z,100.00
2022-12-04T14:47:50.846Z,100.00
2022-12-04T14:52:59.754Z,100.00
2022-12-04T14:58:23.974Z,100.00
2022-12-04T15:03:35.324Z,100.00
2022-12-04T15:08:37.987Z,100.00
2022-12-04T15:13:41.704Z,100.00
2022-12-04T15:18:56.782Z,100.00
2022-12-04T15:23:59.890Z,100.00
2022-12-04T15:29:06.330Z,100.00
2022-12-04T15:34:16.808Z,100.00
2022-12-04T15:39:21.439Z,100.00
2022-12-04T15:44:28.485Z,100.00
2022-12-04T15:49:34.106Z,100.00
2022-12-04T15:54:38.270Z,100.00
2022-12-04T15:59:40.906Z,100.00
2022-12-04T16:04:47.168Z,100.00
2022-12-04T16:10:01.277Z,100.00
2022-12-04T16:15:06.193Z,100.00
2022-12-04T16:20:12.421Z,100.00
2022-12-04T16:25:18.898Z,100.00
2022-12-04T16:30:21.604Z,100.00
2022-12-04T16:35:25.549Z,100.00
2022-12-04T16:40:28.153Z,100.00
2022-12-04T16:45:34.442Z,100.00
2022-12-04T16:50:39.878Z,100.00
2022-12-04T16:55:42.519Z,100.00
2022-12-04T17:00:50.427Z,100.00
2022-12-04T17:05:54.584Z,100.00
2022-12-04T17:10:57.208Z,100.00
2022-12-04T17:16:00.110Z,100.00
2022-12-04T17:21:07.508Z,100.00
2022-12-04T17:26:14.147Z,100.00
2022-12-04T17:31:19.275Z,100.00
2022-12-04T17:36:26.288Z,100.00
2022-12-04T17:41:36.270Z,100.00
2022-12-04T17:46:39.821Z,100.00
2022-12-04T17:51:45.278Z,100.00
2022-12-04T17:56:50.393Z,100.00
2022-12-04T18:01:56.061Z,99.59
2022-12-04T18:07:00.117Z,100.00
2022-12-04T18:12:03.287Z,100.00
2022-12-04T18:17:08.927Z,100.00
2022-12-04T18:22:21.997Z,100.00
2022-12-04T18:27:25.283Z,100.00
2022-12-04T18:32:29.419Z,100.00
2022-12-04T18:37:34.070Z,100.00
2022-12-04T18:42:36.766Z,100.00
2022-12-04T18:47:39.466Z,100.00
2022-12-04T18:52:43.430Z,100.00
2022-12-04T18:57:46.094Z,100.00
2022-12-04T19:02:48.777Z,100.00
2022-12-04T19:07:53.705Z,100.00
2022-12-04T19:12:56.448Z,100.00
2022-12-04T19:17:59.019Z,100.00
2022-12-04T19:23:03.049Z,100.00
2022-12-04T19:28:06.415Z,100.00
2022-12-04T19:33:09.056Z,100.00
2022-12-04T19:38:12.975Z,100.00
2022-12-04T19:43:15.586Z,100.00
2022-12-04T19:48:18.917Z,100.00
2022-12-04T19:53:22.834Z,100.00
2022-12-04T19:58:26.212Z,100.00
2022-12-04T20:03:29.102Z,100.00
2022-12-04T20:08:33.429Z,100.00
2022-12-04T20:13:36.286Z,100.00
2022-12-04T20:18:40.634Z,100.00
2022-12-04T20:23:49.339Z,100.00
2022-12-04T20:28:52.025Z,100.00
2022-12-04T20:33:55.900Z,100.00
2022-12-04T20:39:00.468Z,100.00
2022-12-04T20:44:03.936Z,100.00
2022-12-04T20:49:08.544Z,100.00
2022-12-04T20:54:18.076Z,100.00
2022-12-04T20:59:23.133Z,100.00
2022-12-04T21:04:25.783Z,100.00
2022-12-04T21:09:30.812Z,99.58
2022-12-04T21:14:51.109Z,100.00
2022-12-04T21:19:55.061Z,100.00
2022-12-04T21:24:59.247Z,100.00
2022-12-04T21:30:02.074Z,100.00
2022-12-04T21:35:05.495Z,100.00
2022-12-04T21:40:10.775Z,100.00
2022-12-04T21:45:13.376Z,100.00
2022-12-04T21:50:15.950Z,100.00
2022-12-04T21:55:20.010Z,99.53
2022-12-04T22:00:22.746Z,98.43
2022-12-04T22:05:25.412Z,98.01
2022-12-04T22:10:29.347Z,97.79
2022-12-04T22:15:31.931Z,97.12
2022-12-04T22:20:34.699Z,97.09
2022-12-04T22:25:39.919Z,99.75
2022-12-04T22:30:42.563Z,99.93
2022-12-04T22:35:45.148Z,100.00
2022-12-04T22:40:49.049Z,100.00
2022-12-04T22:45:51.630Z,100.00
2022-12-04T22:50:57.882Z,100.00
2022-12-04T22:56:06.374Z,100.00
2022-12-04T23:01:13.803Z,100.00
2022-12-04T23:06:18.009Z,100.00
2022-12-04T23:11:25.662Z,100.00
2022-12-04T23:16:29.609Z,100.00
2022-12-04T23:21:32.392Z,100.00
2022-12-04T23:26:41.139Z,100.00
2022-12-04T23:31:43.777Z,100.00
2022-12-04T23:36:46.470Z,100.00
2022-12-04T23:41:50.436Z,100.00
2022-12-04T23:46:53.125Z,100.00
2022-12-04T23:51:55.754Z,100.00
2022-12-04T23:56:59.727Z,100.00
